createdAt,value
2023-06-10T00:02:25.249Z,101107.72
2023-06-10T00:04:55.294Z,101119.94
2023-06-10T00:07:22.738Z,101116.81
2023-06-10T00:09:49.960Z,101127.69
2023-06-10T00:12:18.027Z,101126.94
2023-06-10T00:14:45.261Z,101128.81
2023-06-10T00:17:12.605Z,101121.41
2023-06-10T00:19:42.925Z,101129.38
2023-06-10T00:22:13.482Z,101140.84
2023-06-10T00:24:41.376Z,101140.47
2023-06-10T00:27:08.728Z,101138.34
2023-06-10T00:29:36.144Z,101132.09
2023-06-10T00:32:04.056Z,101138.69
2023-06-10T00:34:31.685Z,101140.00
2023-06-10T00:36:59.230Z,101139.53
2023-06-10T00:39:26.537Z,101139.63
2023-06-10T00:41:53.708Z,101147.22
2023-06-10T00:44:20.925Z,101152.06
2023-06-10T00:46:48.470Z,101146.38
2023-06-10T00:49:16.098Z,101142.00
2023-06-10T00:51:43.658Z,101147.25
2023-06-10T00:54:14.544Z,101158.53
2023-06-10T00:56:44.157Z,101148.25
2023-06-10T00:59:11.407Z,101148.66
2023-06-10T01:01:39.774Z,101145.78
2023-06-10T01:04:07.009Z,101145.13
2023-06-10T01:06:53.960Z,101142.09
2023-06-10T01:09:46.391Z,101132.91
2023-06-10T01:12:49.996Z,101143.91
2023-06-10T01:15:18.868Z,101142.63
2023-06-10T01:18:02.687Z,101140.75
2023-06-10T01:20:33.328Z,101135.72
2023-06-10T01:23:03.956Z,101143.97
2023-06-10T01:25:33.813Z,101151.31
2023-06-10T01:28:15.107Z,101148.44
2023-06-10T01:31:09.450Z,101141.31
2023-06-10T01:33:42.851Z,101152.88
2023-06-10T01:36:12.297Z,101159.63
2023-06-10T01:38:45.931Z,101157.22
2023-06-10T01:41:17.010Z,101165.38
2023-06-10T01:43:46.639Z,101151.59
2023-06-10T01:46:14.752Z,101161.94
2023-06-10T01:48:44.794Z,101154.13
2023-06-10T01:51:12.008Z,101164.38
2023-06-10T01:53:39.211Z,101157.91
2023-06-10T01:56:06.625Z,101162.66
2023-06-10T01:58:33.790Z,101159.28
2023-06-10T02:01:00.985Z,101161.84
2023-06-10T02:03:28.397Z,101171.31
2023-06-10T02:05:55.799Z,101160.44
2023-06-10T02:08:23.028Z,101165.97
2023-06-10T02:10:50.300Z,101169.91
2023-06-10T02:13:17.525Z,101172.19
2023-06-10T02:15:44.741Z,101180.81
2023-06-10T02:18:13.075Z,101180.72
2023-06-10T02:20:40.451Z,101184.84
2023-06-10T02:23:07.662Z,101191.81
2023-06-10T02:25:34.894Z,101185.66
2023-06-10T02:28:04.424Z,101183.47
2023-06-10T02:30:31.704Z,101191.16
2023-06-10T02:33:00.399Z,101190.16
2023-06-10T02:35:27.685Z,101187.13
2023-06-10T02:37:54.906Z,101189.63
2023-06-10T02:40:22.141Z,101185.19
2023-06-10T02:42:49.354Z,101183.09
2023-06-10T02:45:16.575Z,101187.03
2023-06-10T02:47:44.055Z,101185.63
2023-06-10T02:50:11.429Z,101201.25
2023-06-10T02:52:38.734Z,101186.81
2023-06-10T02:55:06.818Z,101191.28
2023-06-10T02:57:34.331Z,101198.72
2023-06-10T03:00:03.399Z,101193.28
2023-06-10T03:02:30.733Z,101207.28
2023-06-10T03:04:58.785Z,101200.03
2023-06-10T03:07:27.122Z,101205.69
2023-06-10T03:09:54.422Z,101204.81
2023-06-10T03:12:21.665Z,101205.25
2023-06-10T03:14:48.863Z,101212.03
2023-06-10T03:17:16.043Z,101206.16
2023-06-10T03:19:43.286Z,101205.16
2023-06-10T03:22:16.225Z,101213.19
2023-06-10T03:24:44.803Z,101208.50
2023-06-10T03:27:12.004Z,101221.00
2023-06-10T03:29:39.289Z,101237.63
2023-06-10T03:32:07.494Z,101231.34
2023-06-10T03:34:35.173Z,101229.00
2023-06-10T03:37:02.372Z,101240.03
2023-06-10T03:39:30.275Z,101237.78
2023-06-10T03:42:00.399Z,101232.72
2023-06-10T03:44:27.693Z,101241.06
2023-06-10T03:46:58.650Z,101236.66
2023-06-10T03:49:27.684Z,101231.91
2023-06-10T03:51:55.087Z,101235.50
2023-06-10T03:54:23.251Z,101233.25
2023-06-10T03:56:50.521Z,101226.22
2023-06-10T03:59:17.851Z,101218.03
2023-06-10T04:01:45.893Z,101214.53
2023-06-10T04:04:17.744Z,101221.66
2023-06-10T04:06:45.560Z,101211.88
2023-06-10T04:09:13.796Z,101213.09
2023-06-10T04:11:41.270Z,101213.97
2023-06-10T04:14:09.675Z,101208.22
2023-06-10T04:16:37.010Z,101214.31
2023-06-10T04:19:04.274Z,101210.31
2023-06-10T04:21:31.525Z,101203.09
2023-06-10T04:23:59.343Z,101213.09
2023-06-10T04:26:26.825Z,101223.19
2023-06-10T04:28:54.144Z,101221.22
2023-06-10T04:31:21.949Z,101221.09
2023-06-10T04:33:49.342Z,101207.13
2023-06-10T04:36:16.674Z,101206.09
2023-06-10T04:38:44.163Z,101205.88
2023-06-10T04:41:11.479Z,101206.81
2023-06-10T04:43:39.674Z,101212.72
2023-06-10T04:46:08.968Z,101215.66
2023-06-10T04:48:37.128Z,101216.09
2023-06-10T04:51:04.414Z,101217.97
2023-06-10T04:53:31.735Z,101217.78
2023-06-10T04:55:59.056Z,101211.34
2023-06-10T04:58:26.304Z,101213.09
2023-06-10T05:00:53.506Z,101215.84
2023-06-10T05:03:20.807Z,101215.09
2023-06-10T05:05:48.109Z,101207.91
2023-06-10T05:08:15.364Z,101202.59
2023-06-10T05:10:42.609Z,101195.75
2023-06-10T05:13:09.887Z,101205.25
2023-06-10T05:15:38.018Z,101214.47
2023-06-10T05:18:05.479Z,101216.44
2023-06-10T05:20:32.774Z,101217.59
2023-06-10T05:22:59.949Z,101224.66
2023-06-10T05:25:31.098Z,101217.59
2023-06-10T05:27:58.305Z,101221.50
2023-06-10T05:30:26.905Z,101228.06
2023-06-10T05:32:54.193Z,101232.91
2023-06-10T05:35:21.421Z,101232.47
2023-06-10T05:37:49.153Z,101223.63
2023-06-10T05:40:16.508Z,101235.84
2023-06-10T05:42:43.685Z,101229.06
2023-06-10T05:45:11.717Z,101229.81
2023-06-10T05:47:39.024Z,101228.75
2023-06-10T05:50:08.253Z,101228.22
2023-06-10T05:52:37.296Z,101230.94
2023-06-10T05:55:04.930Z,101223.75
2023-06-10T05:57:32.170Z,101217.16
2023-06-10T05:59:59.462Z,101225.97
2023-06-10T06:02:26.915Z,101222.75
2023-06-10T06:04:54.253Z,101225.78
2023-06-10T06:07:21.930Z,101220.53
2023-06-10T06:09:49.308Z,101221.41
2023-06-10T06:12:16.527Z,101225.47
2023-06-10T06:14:44.085Z,101222.19
2023-06-10T06:17:11.997Z,101224.22
2023-06-10T06:19:39.427Z,101227.81
2023-06-10T06:22:06.761Z,101222.38
2023-06-10T06:24:34.100Z,101227.56
2023-06-10T06:27:01.414Z,101227.00
2023-06-10T06:29:30.946Z,101234.16
2023-06-10T06:31:58.814Z,101224.75
2023-06-10T06:34:26.380Z,101231.41
2023-06-10T06:36:53.598Z,101229.88
2023-06-10T06:39:20.862Z,101236.41
2023-06-10T06:41:48.040Z,101239.69
2023-06-10T06:44:15.489Z,101234.22
2023-06-10T06:46:42.697Z,101232.66
2023-06-10T06:49:09.892Z,101236.03
2023-06-10T06:51:38.207Z,101230.56
2023-06-10T06:54:06.745Z,101236.78
2023-06-10T06:56:34.000Z,101230.72
2023-06-10T06:59:01.201Z,101228.34
2023-06-10T07:01:28.500Z,101232.06
2023-06-10T07:03:55.734Z,101229.94
2023-06-10T07:06:22.963Z,101230.47
2023-06-10T07:08:50.808Z,101235.03
2023-06-10T07:11:18.863Z,101226.13
2023-06-10T07:13:46.043Z,101232.78
2023-06-10T07:16:13.213Z,101216.09
2023-06-10T07:18:40.470Z,101223.13
2023-06-10T07:21:07.735Z,101228.78
2023-06-10T07:23:34.980Z,101232.16
2023-06-10T07:26:02.220Z,101223.72
2023-06-10T07:28:29.470Z,101226.75
2023-06-10T07:30:56.706Z,101229.75
2023-06-10T07:33:23.971Z,101227.81
2023-06-10T07:35:51.221Z,101221.88
2023-06-10T07:38:18.634Z,101211.84
2023-06-10T07:40:46.699Z,101217.75
2023-06-10T07:43:14.035Z,101215.84
2023-06-10T07:45:42.261Z,101221.13
2023-06-10T07:48:09.677Z,101218.63
2023-06-10T07:50:37.182Z,101221.28
2023-06-10T07:53:05.354Z,101213.56
2023-06-10T07:55:32.658Z,101211.03
2023-06-10T07:57:59.883Z,101219.50
2023-06-10T08:00:27.165Z,101216.06
2023-06-10T08:02:54.532Z,101214.88
2023-06-10T08:05:22.015Z,101206.88
2023-06-10T08:07:49.331Z,101206.34
2023-06-10T08:10:16.566Z,101188.94
2023-06-10T08:12:43.839Z,101196.81
2023-06-10T08:15:11.653Z,101190.91
2023-06-10T08:17:40.310Z,101198.13
2023-06-10T08:20:08.177Z,101192.28
2023-06-10T08:22:35.421Z,101192.31
2023-06-10T08:25:02.854Z,101196.25
2023-06-10T08:27:30.101Z,101185.94
2023-06-10T08:29:57.380Z,101185.28
2023-06-10T08:32:24.649Z,101181.44
2023-06-10T08:34:51.930Z,101196.06
2023-06-10T08:37:19.097Z,101179.75
2023-06-10T08:39:46.338Z,101182.53
2023-06-10T08:42:42.965Z,101193.28
2023-06-10T08:45:18.649Z,101184.56
2023-06-10T08:47:54.962Z,101184.41
2023-06-10T08:50:22.472Z,101182.09
2023-06-10T08:52:58.267Z,101192.19
2023-06-10T08:55:37.581Z,101180.03
2023-06-10T08:58:05.400Z,101173.63
2023-06-10T09:00:33.622Z,101183.34
2023-06-10T09:03:04.707Z,101173.38
2023-06-10T09:05:37.595Z,101171.22
2023-06-10T09:08:07.384Z,101170.28
2023-06-10T09:10:35.347Z,101169.53
2023-06-10T09:13:02.739Z,101161.00
2023-06-10T09:15:30.016Z,101166.34
2023-06-10T09:17:57.312Z,101167.03
2023-06-10T09:20:24.799Z,101166.78
2023-06-10T09:22:52.779Z,101169.63
2023-06-10T09:25:20.060Z,101158.59
2023-06-10T09:27:51.130Z,101156.31
2023-06-10T09:30:36.037Z,101155.91
2023-06-10T09:33:11.695Z,101157.47
2023-06-10T09:35:50.144Z,101152.72
2023-06-10T09:38:22.821Z,101141.28
2023-06-10T09:40:55.292Z,101139.47
2023-06-10T09:43:22.818Z,101145.94
2023-06-10T09:45:55.686Z,101150.59
2023-06-10T09:48:24.572Z,101160.03
2023-06-10T09:50:51.828Z,101149.00
2023-06-10T09:53:19.790Z,101151.25
2023-06-10T09:55:47.150Z,101142.06
2023-06-10T09:58:15.504Z,101142.81
2023-06-10T10:00:42.679Z,101139.56
2023-06-10T10:03:09.913Z,101142.16
2023-06-10T10:05:37.253Z,101139.69
2023-06-10T10:08:05.007Z,101136.59
2023-06-10T10:10:32.248Z,101134.59
2023-06-10T10:13:01.395Z,101129.88
2023-06-10T10:15:35.304Z,101131.59
2023-06-10T10:18:11.790Z,101119.16
2023-06-10T10:20:49.125Z,101119.53
2023-06-10T10:23:25.784Z,101115.06
2023-06-10T10:25:56.323Z,101128.84
2023-06-10T10:28:30.673Z,101112.75
2023-06-10T10:31:08.918Z,101105.44
2023-06-10T10:34:03.703Z,101102.00
2023-06-10T10:36:32.442Z,101108.50
2023-06-10T10:39:03.051Z,101101.22
2023-06-10T10:41:33.465Z,101093.63
2023-06-10T10:44:02.412Z,101085.59
2023-06-10T10:46:31.334Z,101084.91
2023-06-10T10:49:02.503Z,101083.66
2023-06-10T10:51:36.511Z,101080.81
2023-06-10T10:54:16.150Z,101093.69
2023-06-10T10:57:13.480Z,101086.06
2023-06-10T10:59:49.571Z,101086.50
2023-06-10T11:02:34.349Z,101082.63
2023-06-10T11:05:03.031Z,101095.53
2023-06-10T11:07:32.820Z,101081.13
2023-06-10T11:10:11.150Z,101075.97
2023-06-10T11:12:47.328Z,101085.66
2023-06-10T11:15:18.744Z,101085.03
2023-06-10T11:18:13.063Z,101079.13
2023-06-10T11:20:49.556Z,101073.91
2023-06-10T11:23:28.858Z,101076.72
2023-06-10T11:26:32.672Z,101080.03
2023-06-10T11:29:00.047Z,101089.03
2023-06-10T11:31:45.993Z,101092.81
2023-06-10T11:34:14.621Z,101085.03
2023-06-10T11:36:46.089Z,101089.69
2023-06-10T11:39:13.637Z,101079.94
2023-06-10T11:41:41.322Z,101075.38
2023-06-10T11:44:18.254Z,101079.19
2023-06-10T11:46:46.477Z,101075.13
2023-06-10T11:49:13.765Z,101079.19
2023-06-10T11:51:49.929Z,101085.53
2023-06-10T11:54:17.405Z,101071.09
2023-06-10T11:56:44.748Z,101075.63
2023-06-10T11:59:12.016Z,101069.38
2023-06-10T12:01:47.013Z,101069.06
2023-06-10T12:04:17.268Z,101074.94
2023-06-10T12:06:51.018Z,101064.31
2023-06-10T12:09:36.102Z,101075.53
2023-06-10T12:12:07.120Z,101075.97
2023-06-10T12:14:57.999Z,101065.72
2023-06-10T12:17:38.533Z,101069.25
2023-06-10T12:20:25.273Z,101072.16
2023-06-10T12:22:52.498Z,101062.50
2023-06-10T12:25:29.858Z,101072.81
2023-06-10T12:27:59.029Z,101049.06
2023-06-10T12:30:28.564Z,101036.06
2023-06-10T12:32:57.805Z,101057.44
2023-06-10T12:35:29.661Z,101049.00
2023-06-10T12:38:07.884Z,101043.38
2023-06-10T12:40:41.589Z,101044.91
2023-06-10T12:43:09.233Z,101048.16
2023-06-10T12:45:40.624Z,101038.13
2023-06-10T12:48:26.630Z,101040.72
2023-06-10T12:50:58.263Z,101037.22
2023-06-10T12:53:29.608Z,101031.22
2023-06-10T12:55:56.822Z,101036.44
2023-06-10T12:58:24.415Z,101024.41
2023-06-10T13:00:53.958Z,101022.66
2023-06-10T13:03:21.803Z,101025.19
2023-06-10T13:05:49.557Z,101015.59
2023-06-10T13:08:16.870Z,101017.47
2023-06-10T13:10:44.223Z,101021.03
2023-06-10T13:13:11.524Z,101014.22
2023-06-10T13:15:42.666Z,101011.69
2023-06-10T13:18:10.853Z,101005.00
2023-06-10T13:20:38.113Z,101009.09
2023-06-10T13:23:05.333Z,101009.94
2023-06-10T13:25:33.698Z,101008.22
2023-06-10T13:28:00.926Z,101003.25
2023-06-10T13:30:28.446Z,101000.00
2023-06-10T13:32:55.870Z,100997.31
2023-06-10T13:35:23.101Z,101000.09
2023-06-10T13:37:50.575Z,100986.88
2023-06-10T13:40:17.768Z,100981.59
2023-06-10T13:42:45.278Z,100980.59
2023-06-10T13:45:12.790Z,100982.22
2023-06-10T13:47:40.523Z,100974.38
2023-06-10T13:50:08.877Z,100974.63
2023-06-10T13:52:36.052Z,100974.06
2023-06-10T13:55:03.529Z,100975.78
2023-06-10T13:57:30.894Z,100973.03
2023-06-10T13:59:58.059Z,100977.03
2023-06-10T14:02:25.450Z,100979.34
2023-06-10T14:04:52.746Z,100973.25
2023-06-10T14:07:19.941Z,100962.94
2023-06-10T14:09:47.139Z,100974.06
2023-06-10T14:12:14.407Z,100969.69
2023-06-10T14:14:41.607Z,100959.03
2023-06-10T14:17:08.932Z,100961.69
2023-06-10T14:19:36.282Z,100970.50
2023-06-10T14:22:06.479Z,100962.88
2023-06-10T14:24:37.313Z,100970.78
2023-06-10T14:27:04.722Z,100963.84
2023-06-10T14:29:32.753Z,100961.75
2023-06-10T14:32:00.849Z,100959.16
2023-06-10T14:34:30.781Z,100952.28
2023-06-10T14:36:58.010Z,100953.72
2023-06-10T14:39:25.800Z,100937.13
2023-06-10T14:41:55.713Z,100946.59
2023-06-10T14:44:22.875Z,100942.97
2023-06-10T14:46:50.061Z,100938.03
2023-06-10T14:49:17.346Z,100940.16
2023-06-10T14:51:45.657Z,100943.19
2023-06-10T14:54:12.909Z,100936.53
2023-06-10T14:56:40.062Z,100935.69
2023-06-10T14:59:07.268Z,100938.59
2023-06-10T15:01:34.800Z,100940.22
2023-06-10T15:04:02.052Z,100935.75
2023-06-10T15:06:29.428Z,100936.81
2023-06-10T15:08:56.619Z,100932.69
2023-06-10T15:11:23.852Z,100933.06
2023-06-10T15:13:51.145Z,100931.66
2023-06-10T15:16:18.405Z,100932.38
2023-06-10T15:18:45.715Z,100940.38
2023-06-10T15:21:12.912Z,100933.03
2023-06-10T15:23:40.694Z,100944.97
2023-06-10T15:26:08.077Z,100949.84
2023-06-10T15:28:35.475Z,100966.13
2023-06-10T15:31:02.741Z,100970.03
2023-06-10T15:33:30.266Z,100982.19
2023-06-10T15:35:57.659Z,100987.31
2023-06-10T15:38:25.005Z,100982.34
2023-06-10T15:40:52.248Z,100979.03
2023-06-10T15:43:19.540Z,100973.97
2023-06-10T15:45:48.358Z,100971.72
2023-06-10T15:48:15.839Z,100969.72
2023-06-10T15:50:43.949Z,100973.00
2023-06-10T15:53:11.801Z,100967.91
2023-06-10T15:55:39.042Z,100970.41
2023-06-10T15:58:06.491Z,100974.09
2023-06-10T16:00:35.478Z,100973.94
2023-06-10T16:03:03.980Z,100972.56
2023-06-10T16:05:31.301Z,100981.00
2023-06-10T16:08:00.489Z,100993.31
2023-06-10T16:10:30.039Z,100991.63
2023-06-10T16:12:57.220Z,100988.25
2023-06-10T16:15:24.430Z,100986.94
2023-06-10T16:17:51.678Z,101009.09
2023-06-10T16:20:19.622Z,101016.47
2023-06-10T16:22:46.793Z,101032.91
2023-06-10T16:25:14.026Z,101026.75
2023-06-10T16:27:41.250Z,101033.75
2023-06-10T16:30:09.133Z,101033.44
2023-06-10T16:32:36.381Z,101035.34
2023-06-10T16:35:04.028Z,101038.63
2023-06-10T16:37:31.208Z,101052.50
2023-06-10T16:39:58.452Z,101049.41
2023-06-10T16:42:26.019Z,101059.47
2023-06-10T16:44:53.250Z,101063.28
2023-06-10T16:47:20.955Z,101077.06
2023-06-10T16:49:50.661Z,101078.84
2023-06-10T16:52:18.601Z,101085.81
2023-06-10T16:54:45.823Z,101085.75
2023-06-10T16:57:13.202Z,101077.16
2023-06-10T16:59:40.513Z,101084.25
2023-06-10T17:02:07.737Z,101080.81
2023-06-10T17:04:35.009Z,101075.00
2023-06-10T17:07:02.510Z,101084.34
2023-06-10T17:09:29.779Z,101095.16
2023-06-10T17:11:57.179Z,101100.50
2023-06-10T17:14:27.370Z,101102.94
2023-06-10T17:16:54.641Z,101099.31
2023-06-10T17:19:22.076Z,101102.03
2023-06-10T17:21:49.286Z,101106.44
2023-06-10T17:24:16.649Z,101112.38
2023-06-10T17:26:43.986Z,101109.81
2023-06-10T17:29:11.449Z,101109.06
2023-06-10T17:31:38.761Z,101115.94
2023-06-10T17:34:05.952Z,101102.84
2023-06-10T17:36:33.180Z,101098.66
2023-06-10T17:39:00.410Z,101106.28
2023-06-10T17:41:27.628Z,101099.72
2023-06-10T17:43:54.801Z,101115.28
2023-06-10T17:46:22.031Z,101107.88
2023-06-10T17:48:49.218Z,101096.94
2023-06-10T17:51:17.018Z,101102.03
2023-06-10T17:53:44.316Z,101097.56
2023-06-10T17:56:11.527Z,101092.56
2023-06-10T17:58:38.736Z,101089.13
2023-06-10T18:01:06.417Z,101086.59
2023-06-10T18:03:37.242Z,101076.34
2023-06-10T18:06:05.517Z,101083.22
2023-06-10T18:08:34.660Z,101082.28
2023-06-10T18:11:03.516Z,101084.09
2023-06-10T18:13:33.245Z,101077.25
2023-06-10T18:16:03.109Z,101079.78
2023-06-10T18:18:30.365Z,101075.44
2023-06-10T18:20:59.798Z,101081.47
2023-06-10T18:23:28.480Z,101071.38
2023-06-10T18:25:55.769Z,101073.94
2023-06-10T18:28:23.463Z,101079.09
2023-06-10T18:30:50.655Z,101081.63
2023-06-10T18:33:17.828Z,101079.06
2023-06-10T18:35:45.099Z,101074.81
2023-06-10T18:38:12.312Z,101074.00
2023-06-10T18:40:39.491Z,101072.28
2023-06-10T18:43:06.801Z,101068.88
2023-06-10T18:45:34.064Z,101073.09
2023-06-10T18:48:01.403Z,101071.41
2023-06-10T18:50:28.679Z,101076.50
2023-06-10T18:52:57.657Z,101079.00
2023-06-10T18:55:25.312Z,101087.56
2023-06-10T18:57:52.520Z,101096.97
2023-06-10T19:00:19.896Z,101097.81
2023-06-10T19:02:47.220Z,101107.16
2023-06-10T19:05:15.102Z,101109.72
2023-06-10T19:07:42.300Z,101107.16
2023-06-10T19:10:09.841Z,101117.28
2023-06-10T19:12:37.030Z,101120.69
2023-06-10T19:15:04.860Z,101126.59
2023-06-10T19:17:32.076Z,101124.09
2023-06-10T19:19:59.809Z,101137.69
2023-06-10T19:22:27.027Z,101131.66
2023-06-10T19:25:06.572Z,101133.44
2023-06-10T19:27:34.641Z,101132.59
2023-06-10T19:30:02.634Z,101136.78
2023-06-10T19:32:29.894Z,101141.00
2023-06-10T19:34:57.133Z,101160.47
2023-06-10T19:37:24.460Z,101180.78
2023-06-10T19:39:51.622Z,101177.97
2023-06-10T19:42:18.816Z,101192.66
2023-06-10T19:44:46.121Z,101182.22
2023-06-10T19:47:13.409Z,101183.25
2023-06-10T19:49:40.758Z,101198.66
2023-06-10T19:52:08.896Z,101191.78
2023-06-10T19:54:37.122Z,101195.16
2023-06-10T19:57:04.777Z,101183.47
2023-06-10T19:59:33.627Z,101187.59
2023-06-10T20:02:00.978Z,101196.63
2023-06-10T20:04:28.318Z,101189.34
2023-06-10T20:06:55.553Z,101180.91
2023-06-10T20:09:23.218Z,101186.47
2023-06-10T20:11:50.434Z,101191.59
2023-06-10T20:14:19.216Z,101186.56
2023-06-10T20:16:46.565Z,101190.00
2023-06-10T20:19:14.038Z,101186.63
2023-06-10T20:21:41.275Z,101191.78
2023-06-10T20:24:09.304Z,101188.00
2023-06-10T20:26:36.648Z,101192.22
2023-06-10T20:29:04.412Z,101184.06
2023-06-10T20:31:31.899Z,101181.31
2023-06-10T20:33:59.195Z,101186.47
2023-06-10T20:36:26.600Z,101190.69
2023-06-10T20:38:53.801Z,101189.84
2023-06-10T20:41:22.587Z,101189.88
2023-06-10T20:43:49.805Z,101189.53
2023-06-10T20:46:17.052Z,101191.44
2023-06-10T20:48:44.257Z,101193.94
2023-06-10T20:51:11.444Z,101198.91
2023-06-10T20:53:38.656Z,101195.38
2023-06-10T20:56:05.931Z,101198.72
2023-06-10T20:58:34.261Z,101199.22
2023-06-10T21:01:01.969Z,101199.72
2023-06-10T21:03:29.426Z,101195.38
2023-06-10T21:05:56.774Z,101202.94
2023-06-10T21:08:26.067Z,101207.94
2023-06-10T21:10:55.365Z,101226.19
2023-06-10T21:13:22.590Z,101228.81
2023-06-10T21:15:49.920Z,101231.28
2023-06-10T21:18:17.283Z,101239.19
2023-06-10T21:20:44.512Z,101237.88
2023-06-10T21:23:13.497Z,101240.81
2023-06-10T21:25:41.548Z,101240.53
2023-06-10T21:28:08.891Z,101251.34
2023-06-10T21:30:37.308Z,101250.84
2023-06-10T21:33:05.351Z,101258.03
2023-06-10T21:35:32.643Z,101255.44
2023-06-10T21:37:59.837Z,101260.75
2023-06-10T21:40:27.249Z,101262.63
2023-06-10T21:42:54.506Z,101262.47
2023-06-10T21:45:21.743Z,101263.97
2023-06-10T21:47:49.215Z,101261.94
2023-06-10T21:50:16.504Z,101261.34
2023-06-10T21:52:43.703Z,101273.22
2023-06-10T21:55:11.459Z,101269.66
2023-06-10T21:57:39.010Z,101271.47
2023-06-10T22:00:12.513Z,101266.63
2023-06-10T22:02:40.833Z,101269.03
2023-06-10T22:05:09.454Z,101272.56
2023-06-10T22:07:37.281Z,101268.97
2023-06-10T22:10:05.140Z,101267.97
2023-06-10T22:12:32.367Z,101272.03
2023-06-10T22:14:59.590Z,101259.84
2023-06-10T22:17:26.925Z,101271.75
2023-06-10T22:19:54.181Z,101267.06
2023-06-10T22:22:21.778Z,101259.00
2023-06-10T22:24:58.332Z,101261.47
2023-06-10T22:27:26.552Z,101258.09
2023-06-10T22:29:53.828Z,101269.88
2023-06-10T22:32:21.555Z,101274.56
2023-06-10T22:34:48.914Z,101271.06
2023-06-10T22:37:16.197Z,101272.28
2023-06-10T22:39:43.484Z,101275.50
2023-06-10T22:42:11.552Z,101273.38
2023-06-10T22:44:38.815Z,101273.34
2023-06-10T22:47:06.804Z,101272.81
2023-06-10T22:49:34.008Z,101277.22
2023-06-10T22:52:01.285Z,101263.50
2023-06-10T22:54:28.486Z,101273.44
2023-06-10T22:56:55.800Z,101268.25
2023-06-10T22:59:23.058Z,101266.94
2023-06-10T23:01:50.351Z,101266.00
2023-06-10T23:04:17.706Z,101275.44
2023-06-10T23:06:46.126Z,101273.38
2023-06-10T23:09:14.908Z,101275.47
2023-06-10T23:11:42.582Z,101279.34
2023-06-10T23:14:09.826Z,101275.06
2023-06-10T23:16:45.848Z,101272.53
2023-06-10T23:19:19.002Z,101280.53
2023-06-10T23:21:54.393Z,101277.16
2023-06-10T23:24:28.266Z,101285.47
2023-06-10T23:26:57.181Z,101286.06
2023-06-10T23:29:26.097Z,101281.41
2023-06-10T23:31:54.385Z,101286.06
2023-06-10T23:34:22.313Z,101289.22
2023-06-10T23:36:49.611Z,101292.31
2023-06-10T23:39:17.361Z,101287.56
2023-06-10T23:41:46.311Z,101286.53
2023-06-10T23:44:14.513Z,101288.19
2023-06-10T23:46:41.748Z,101281.56
2023-06-10T23:49:09.911Z,101290.88
2023-06-10T23:51:38.806Z,101288.69
2023-06-10T23:54:07.028Z,101279.38
2023-06-10T23:56:34.263Z,101289.41
2023-06-10T23:59:01.541Z,101280.44
